createdAt,value
2022-12-09T00:01:28.844Z,100.00
2022-12-09T00:03:57.163Z,100.00
2022-12-09T00:06:27.564Z,100.00
2022-12-09T00:08:56.676Z,100.00
2022-12-09T00:11:24.769Z,100.00
2022-12-09T00:13:53.800Z,100.00
2022-12-09T00:16:24.672Z,100.00
2022-12-09T00:18:53.282Z,100.00
2022-12-09T00:21:22.761Z,100.00
2022-12-09T00:23:51.417Z,100.00
2022-12-09T00:26:20.754Z,100.00
2022-12-09T00:28:50.446Z,100.00
2022-12-09T00:31:21.410Z,100.00
2022-12-09T00:33:50.791Z,99.98
2022-12-09T00:36:21.981Z,100.00
2022-12-09T00:38:50.188Z,100.00
2022-12-09T00:41:19.184Z,100.00
2022-12-09T00:43:48.315Z,100.00
2022-12-09T00:46:17.112Z,100.00
2022-12-09T00:48:46.547Z,100.00
2022-12-09T00:51:18.124Z,100.00
2022-12-09T00:53:47.327Z,100.00
2022-12-09T00:56:15.290Z,100.00
2022-12-09T00:58:43.045Z,99.97
2022-12-09T01:01:10.729Z,100.00
2022-12-09T01:03:39.492Z,100.00
2022-12-09T01:06:11.927Z,100.00
2022-12-09T01:08:42.869Z,100.00
2022-12-09T01:11:12.637Z,100.00
2022-12-09T01:13:40.277Z,100.00
2022-12-09T01:16:15.219Z,100.00
2022-12-09T01:18:42.840Z,100.00
2022-12-09T01:21:10.599Z,100.00
2022-12-09T01:23:38.281Z,100.00
2022-12-09T01:26:08.124Z,100.00
2022-12-09T01:28:38.890Z,100.00
2022-12-09T01:31:08.100Z,100.00
2022-12-09T01:33:35.730Z,100.00
2022-12-09T01:36:06.035Z,100.00
2022-12-09T01:38:33.849Z,100.00
2022-12-09T01:41:01.569Z,100.00
2022-12-09T01:43:30.582Z,100.00
2022-12-09T01:46:02.544Z,100.00
2022-12-09T01:48:33.720Z,100.00
2022-12-09T01:51:04.146Z,100.00
2022-12-09T01:53:36.041Z,100.00
2022-12-09T01:56:09.454Z,100.00
2022-12-09T01:58:38.910Z,100.00
2022-12-09T02:01:07.274Z,100.00
2022-12-09T02:03:35.379Z,100.00
2022-12-09T02:06:03.243Z,100.00
2022-12-09T02:08:31.260Z,100.00
2022-12-09T02:11:08.459Z,100.00
2022-12-09T02:13:50.849Z,100.00
2022-12-09T02:16:22.812Z,100.00
2022-12-09T02:18:59.030Z,100.00
2022-12-09T02:21:32.440Z,100.00
2022-12-09T02:24:04.762Z,100.00
2022-12-09T02:26:41.926Z,100.00
2022-12-09T02:29:36.215Z,100.00
2022-12-09T02:32:37.074Z,100.00
2022-12-09T02:35:16.293Z,100.00
2022-12-09T02:37:52.135Z,100.00
2022-12-09T02:40:23.706Z,100.00
2022-12-09T02:42:52.043Z,100.00
2022-12-09T02:45:22.605Z,100.00
2022-12-09T02:47:55.557Z,99.38
2022-12-09T02:50:28.430Z,98.12
2022-12-09T02:53:00.069Z,98.17
2022-12-09T02:55:32.647Z,98.83
2022-12-09T02:58:02.174Z,98.81
2022-12-09T03:00:33.255Z,98.13
2022-12-09T03:03:04.106Z,99.65
2022-12-09T03:05:42.231Z,99.99
2022-12-09T03:08:18.236Z,100.00
2022-12-09T03:10:53.545Z,100.00
2022-12-09T03:13:32.745Z,99.60
2022-12-09T03:16:06.081Z,99.06
2022-12-09T03:18:37.170Z,99.07
2022-12-09T03:21:07.359Z,98.51
2022-12-09T03:23:37.543Z,97.48
2022-12-09T03:26:07.568Z,97.96
2022-12-09T03:28:39.553Z,98.36
2022-12-09T03:31:13.929Z,97.29
2022-12-09T03:33:42.844Z,98.25
2022-12-09T03:36:13.916Z,99.14
2022-12-09T03:38:44.536Z,98.94
2022-12-09T03:41:21.274Z,99.93
2022-12-09T03:43:53.678Z,99.01
2022-12-09T03:46:22.959Z,99.84
2022-12-09T03:48:51.312Z,98.56
2022-12-09T03:51:26.034Z,99.08
2022-12-09T03:54:00.887Z,99.50
2022-12-09T03:56:32.869Z,99.76
2022-12-09T03:59:03.441Z,99.51
2022-12-09T04:01:33.561Z,98.61
2022-12-09T04:04:01.680Z,99.18
2022-12-09T04:06:31.049Z,98.78
2022-12-09T04:09:02.389Z,99.08
2022-12-09T04:11:31.594Z,99.28
2022-12-09T04:13:59.673Z,99.96
2022-12-09T04:16:27.749Z,99.27
2022-12-09T04:18:55.894Z,99.60
2022-12-09T04:21:23.541Z,99.06
2022-12-09T04:23:52.727Z,99.61
2022-12-09T04:26:22.004Z,99.18
2022-12-09T04:28:50.075Z,99.92
2022-12-09T04:31:19.726Z,100.00
2022-12-09T04:33:48.250Z,99.06
2022-12-09T04:36:18.096Z,99.23
2022-12-09T04:38:46.471Z,99.55
2022-12-09T04:41:16.224Z,99.11
2022-12-09T04:43:44.145Z,99.87
2022-12-09T04:46:13.854Z,99.77
2022-12-09T04:48:41.859Z,99.41
2022-12-09T04:51:10.518Z,98.65
2022-12-09T04:53:40.163Z,98.63
2022-12-09T04:56:12.075Z,98.58
2022-12-09T04:58:41.726Z,99.09
2022-12-09T05:01:10.891Z,99.56
2022-12-09T05:03:39.881Z,98.25
2022-12-09T05:06:09.608Z,97.94
2022-12-09T05:08:37.657Z,98.31
2022-12-09T05:11:06.381Z,98.11
2022-12-09T05:13:34.792Z,99.04
2022-12-09T05:16:10.617Z,98.30
2022-12-09T05:18:41.834Z,98.30
2022-12-09T05:21:13.683Z,98.93
2022-12-09T05:23:41.773Z,98.55
2022-12-09T05:26:15.380Z,98.16
2022-12-09T05:28:43.795Z,97.54
2022-12-09T05:31:15.427Z,96.78
2022-12-09T05:33:43.446Z,97.53
2022-12-09T05:36:12.410Z,96.99
2022-12-09T05:38:41.133Z,97.17
2022-12-09T05:41:09.166Z,97.46
2022-12-09T05:43:37.733Z,97.00
2022-12-09T05:46:07.815Z,97.98
2022-12-09T05:48:38.276Z,97.32
2022-12-09T05:51:08.694Z,98.10
2022-12-09T05:53:37.934Z,97.79
2022-12-09T05:56:06.723Z,97.25
2022-12-09T05:58:34.955Z,97.36
2022-12-09T06:01:05.734Z,97.19
2022-12-09T06:03:34.290Z,97.59
2022-12-09T06:06:07.503Z,96.94
2022-12-09T06:08:35.567Z,97.82
2022-12-09T06:11:03.461Z,97.92
2022-12-09T06:13:32.061Z,97.01
2022-12-09T06:16:05.232Z,97.66
2022-12-09T06:18:33.181Z,96.39
2022-12-09T06:21:05.457Z,96.77
2022-12-09T06:23:36.015Z,96.79
2022-12-09T06:26:04.160Z,94.90
2022-12-09T06:28:32.615Z,94.83
2022-12-09T06:31:00.874Z,95.75
2022-12-09T06:33:53.770Z,95.59
2022-12-09T06:36:16.861Z,95.71
2022-12-09T06:38:46.133Z,96.54
2022-12-09T06:41:15.632Z,96.48
2022-12-09T06:43:43.475Z,97.25
2022-12-09T06:46:15.449Z,96.98
2022-12-09T06:48:43.749Z,96.88
2022-12-09T06:51:12.273Z,96.73
2022-12-09T06:53:40.258Z,95.75
2022-12-09T06:56:12.742Z,96.09
2022-12-09T06:58:42.255Z,97.13
2022-12-09T07:01:13.783Z,96.49
2022-12-09T07:03:42.867Z,97.29
2022-12-09T07:06:21.946Z,95.91
2022-12-09T07:08:50.152Z,95.51
2022-12-09T07:11:19.448Z,95.74
2022-12-09T07:13:47.271Z,96.21
2022-12-09T07:16:15.079Z,96.57
2022-12-09T07:18:43.088Z,96.87
2022-12-09T07:21:15.719Z,95.39
2022-12-09T07:23:43.628Z,96.00
2022-12-09T07:26:11.877Z,96.22
2022-12-09T07:28:42.990Z,96.21
2022-12-09T07:31:19.278Z,95.16
2022-12-09T07:33:47.571Z,95.63
2022-12-09T07:36:20.732Z,94.98
2022-12-09T07:38:49.231Z,96.22
2022-12-09T07:41:19.439Z,95.98
2022-12-09T07:43:49.276Z,96.45
2022-12-09T07:46:19.199Z,97.15
2022-12-09T07:48:48.041Z,96.15
2022-12-09T07:51:16.867Z,95.51
2022-12-09T07:53:44.688Z,95.69
2022-12-09T07:56:14.755Z,95.92
2022-12-09T07:58:43.881Z,98.50
2022-12-09T08:01:14.802Z,98.64
2022-12-09T08:03:43.543Z,99.06
2022-12-09T08:06:13.979Z,97.75
2022-12-09T08:08:42.083Z,98.37
2022-12-09T08:11:11.969Z,97.60
2022-12-09T08:13:42.272Z,96.32
2022-12-09T08:16:11.919Z,94.12
2022-12-09T08:18:43.060Z,92.82
2022-12-09T08:21:14.155Z,92.62
2022-12-09T08:23:42.052Z,91.68
2022-12-09T08:26:11.466Z,92.02
2022-12-09T08:28:39.679Z,91.47
2022-12-09T08:31:09.232Z,91.73
2022-12-09T08:33:37.410Z,90.24
2022-12-09T08:36:11.620Z,89.26
2022-12-09T08:38:40.019Z,88.52
2022-12-09T08:41:12.627Z,87.49
2022-12-09T08:43:41.361Z,88.47
2022-12-09T08:46:09.689Z,87.93
2022-12-09T08:48:38.928Z,88.38
2022-12-09T08:51:09.195Z,87.82
2022-12-09T08:53:37.114Z,89.96
2022-12-09T08:56:10.228Z,87.93
2022-12-09T08:58:38.187Z,85.74
2022-12-09T09:01:06.716Z,86.10
2022-12-09T09:03:35.400Z,85.57
2022-12-09T09:06:09.508Z,84.81
2022-12-09T09:08:40.997Z,84.35
2022-12-09T09:11:13.391Z,82.73
2022-12-09T09:13:42.850Z,81.97
2022-12-09T09:16:12.433Z,80.91
2022-12-09T09:18:41.979Z,81.94
2022-12-09T09:21:12.478Z,80.91
2022-12-09T09:23:42.990Z,80.18
2022-12-09T09:26:12.423Z,80.44
2022-12-09T09:28:40.626Z,79.82
2022-12-09T09:31:10.230Z,81.35
2022-12-09T09:33:38.137Z,81.64
2022-12-09T09:36:10.490Z,82.15
2022-12-09T09:38:39.323Z,81.69
2022-12-09T09:41:21.708Z,81.35
2022-12-09T09:43:49.927Z,82.06
2022-12-09T09:46:21.655Z,82.26
2022-12-09T09:48:51.962Z,82.12
2022-12-09T09:51:22.084Z,81.89
2022-12-09T09:53:53.273Z,86.59
2022-12-09T09:56:29.214Z,85.32
2022-12-09T09:59:06.653Z,85.14
2022-12-09T10:01:38.048Z,82.86
2022-12-09T10:04:15.565Z,81.03
2022-12-09T10:06:48.333Z,80.83
2022-12-09T10:09:22.870Z,81.35
2022-12-09T10:12:01.164Z,81.77
2022-12-09T10:14:41.038Z,99.32
2022-12-09T10:17:24.152Z,100.00
2022-12-09T10:19:56.884Z,93.69
2022-12-09T10:22:29.922Z,80.65
2022-12-09T10:24:59.851Z,77.86
2022-12-09T10:27:34.932Z,77.83
2022-12-09T10:30:05.677Z,77.54
2022-12-09T10:32:36.605Z,80.92
2022-12-09T10:35:15.435Z,81.31
2022-12-09T10:37:43.759Z,82.35
2022-12-09T10:40:25.654Z,81.95
2022-12-09T10:43:14.056Z,81.32
2022-12-09T10:48:38.725Z,80.08
2022-12-09T10:51:12.251Z,79.60
2022-12-09T10:53:45.968Z,75.96
2022-12-09T10:56:19.268Z,77.48
2022-12-09T10:58:48.690Z,78.19
2022-12-09T11:01:17.417Z,77.19
2022-12-09T11:03:50.052Z,75.33
2022-12-09T11:06:26.010Z,75.84
2022-12-09T11:08:57.714Z,74.79
2022-12-09T11:11:41.190Z,74.32
2022-12-09T11:14:25.721Z,74.07
2022-12-09T11:16:55.553Z,73.65
2022-12-09T11:19:35.132Z,73.82
2022-12-09T11:22:24.017Z,74.91
2022-12-09T11:24:56.519Z,75.26
2022-12-09T11:27:30.408Z,75.00
2022-12-09T11:30:13.976Z,75.01
2022-12-09T11:32:56.680Z,75.23
2022-12-09T11:35:31.237Z,73.52
2022-12-09T11:38:02.165Z,73.10
2022-12-09T11:40:30.755Z,73.17
2022-12-09T11:42:58.663Z,75.53
2022-12-09T11:45:31.634Z,74.28
2022-12-09T11:48:30.297Z,73.41
2022-12-09T11:51:02.254Z,73.96
2022-12-09T11:53:31.306Z,73.61
2022-12-09T11:56:05.367Z,74.81
2022-12-09T11:58:41.809Z,74.85
2022-12-09T12:01:14.128Z,74.79
2022-12-09T12:03:47.357Z,73.26
2022-12-09T12:06:21.164Z,74.59
2022-12-09T12:08:52.346Z,75.34
2022-12-09T12:11:36.977Z,75.23
2022-12-09T12:14:13.701Z,75.60
2022-12-09T12:16:51.417Z,74.82
2022-12-09T12:19:25.566Z,75.20
2022-12-09T12:22:24.328Z,76.08
2022-12-09T12:25:06.284Z,76.18
2022-12-09T12:27:47.992Z,77.06
2022-12-09T12:30:19.057Z,76.51
2022-12-09T12:33:52.967Z,75.42
2022-12-09T12:35:59.962Z,78.16
2022-12-09T12:38:36.989Z,77.10
2022-12-09T12:41:12.930Z,77.30
2022-12-09T12:44:12.836Z,76.32
2022-12-09T12:46:54.282Z,75.94
2022-12-09T12:49:52.251Z,76.85
2022-12-09T12:55:44.660Z,74.93
2022-12-09T12:58:17.940Z,76.45
2022-12-09T13:00:58.544Z,75.47
2022-12-09T13:03:30.789Z,73.90
2022-12-09T13:06:00.073Z,74.32
2022-12-09T13:08:34.216Z,74.68
2022-12-09T13:11:08.162Z,74.08
2022-12-09T13:13:39.549Z,74.48
2022-12-09T13:16:16.402Z,74.38
2022-12-09T13:18:45.301Z,74.80
2022-12-09T13:21:15.216Z,74.87
2022-12-09T13:23:57.299Z,74.64
2022-12-09T13:26:32.384Z,74.30
2022-12-09T13:29:06.890Z,75.32
2022-12-09T13:31:37.331Z,76.08
2022-12-09T13:34:21.203Z,74.52
2022-12-09T13:36:50.410Z,74.64
2022-12-09T13:39:51.313Z,74.72
2022-12-09T13:42:52.592Z,76.12
2022-12-09T13:45:27.622Z,74.71
2022-12-09T13:47:58.076Z,75.80
2022-12-09T13:50:35.443Z,75.99
2022-12-09T13:53:07.206Z,76.54
2022-12-09T13:55:48.616Z,75.88
2022-12-09T13:59:04.808Z,76.16
2022-12-09T14:01:37.253Z,76.79
2022-12-09T14:04:13.562Z,76.79
2022-12-09T14:06:52.617Z,77.19
2022-12-09T14:09:33.388Z,77.81
2022-12-09T14:12:03.167Z,77.79
2022-12-09T14:14:54.938Z,78.02
2022-12-09T14:17:59.871Z,77.67
2022-12-09T14:20:33.552Z,78.59
2022-12-09T14:23:20.368Z,78.08
2022-12-09T14:26:04.465Z,77.52
2022-12-09T14:28:52.923Z,77.98
2022-12-09T14:31:57.875Z,79.21
2022-12-09T14:34:36.511Z,79.20
2022-12-09T14:37:35.381Z,79.98
2022-12-09T14:40:20.441Z,80.35
2022-12-09T14:42:56.297Z,80.44
2022-12-09T14:45:32.325Z,78.80
2022-12-09T14:48:00.899Z,79.45
2022-12-09T14:50:29.885Z,80.11
2022-12-09T14:53:01.501Z,79.98
2022-12-09T14:55:31.407Z,80.34
2022-12-09T14:58:02.090Z,81.43
2022-12-09T15:00:35.487Z,81.92
2022-12-09T15:05:56.931Z,81.96
2022-12-09T15:08:32.700Z,81.69
2022-12-09T15:11:01.508Z,81.80
2022-12-09T15:13:34.451Z,81.78
2022-12-09T15:16:02.468Z,82.06
2022-12-09T15:18:39.940Z,81.84
2022-12-09T15:21:08.569Z,81.67
2022-12-09T15:23:39.209Z,82.42
2022-12-09T15:26:09.196Z,84.26
2022-12-09T15:28:38.446Z,83.49
2022-12-09T15:31:08.290Z,84.40
2022-12-09T15:33:41.306Z,83.84
2022-12-09T15:36:12.431Z,84.42
2022-12-09T15:38:45.494Z,84.48
2022-12-09T15:41:27.346Z,84.54
2022-12-09T15:44:00.875Z,85.38
2022-12-09T15:46:30.992Z,85.11
2022-12-09T15:49:01.875Z,86.42
2022-12-09T15:51:30.137Z,86.79
2022-12-09T15:54:01.388Z,86.87
2022-12-09T15:56:35.599Z,86.23
2022-12-09T15:59:10.941Z,87.11
2022-12-09T16:01:39.098Z,86.59
2022-12-09T16:04:08.040Z,86.79
2022-12-09T16:06:37.758Z,86.81
2022-12-09T16:09:13.254Z,86.97
2022-12-09T16:11:42.763Z,86.92
2022-12-09T16:14:12.377Z,87.87
2022-12-09T16:16:47.319Z,87.66
2022-12-09T16:19:26.620Z,87.83
2022-12-09T16:21:55.970Z,87.75
2022-12-09T16:24:23.817Z,88.68
2022-12-09T16:26:53.710Z,88.31
2022-12-09T16:29:27.265Z,89.28
2022-12-09T16:32:21.595Z,88.99
2022-12-09T16:34:50.921Z,90.25
2022-12-09T16:37:30.538Z,89.65
2022-12-09T16:39:59.506Z,89.15
2022-12-09T16:42:35.205Z,89.74
2022-12-09T16:45:25.270Z,89.13
2022-12-09T16:47:56.823Z,89.51
2022-12-09T16:50:28.784Z,89.46
2022-12-09T16:52:56.525Z,90.12
2022-12-09T16:55:25.807Z,89.83
2022-12-09T16:57:54.580Z,89.92
2022-12-09T17:00:24.062Z,89.82
2022-12-09T17:02:54.309Z,90.20
2022-12-09T17:05:21.845Z,90.20
2022-12-09T17:07:49.503Z,90.64
2022-12-09T17:10:17.901Z,90.00
2022-12-09T17:12:45.992Z,90.52
2022-12-09T17:15:15.492Z,90.87
2022-12-09T17:17:48.430Z,91.23
2022-12-09T17:20:17.071Z,91.17
2022-12-09T17:22:44.637Z,90.85
2022-12-09T17:25:12.398Z,90.85
2022-12-09T17:27:39.927Z,90.12
2022-12-09T17:30:09.002Z,89.12
2022-12-09T17:32:37.583Z,90.20
2022-12-09T17:35:12.299Z,90.27
2022-12-09T17:37:40.253Z,90.86
2022-12-09T17:40:08.756Z,91.44
2022-12-09T17:42:36.479Z,91.90
2022-12-09T17:45:04.718Z,91.83
2022-12-09T17:47:32.577Z,91.79
2022-12-09T17:50:01.182Z,92.08
2022-12-09T17:52:30.120Z,91.28
2022-12-09T17:54:57.656Z,91.41
2022-12-09T17:57:25.210Z,92.34
2022-12-09T17:59:52.797Z,91.69
2022-12-09T18:02:20.623Z,91.53
2022-12-09T18:04:48.234Z,96.16
2022-12-09T18:07:15.861Z,94.29
2022-12-09T18:09:47.567Z,92.93
2022-12-09T18:12:18.949Z,93.00
2022-12-09T18:14:46.494Z,92.51
2022-12-09T18:17:14.044Z,92.67
2022-12-09T18:19:41.576Z,92.90
2022-12-09T18:22:09.123Z,92.67
2022-12-09T18:24:36.759Z,93.02
2022-12-09T18:27:05.667Z,93.27
2022-12-09T18:29:33.850Z,92.99
2022-12-09T18:32:02.094Z,92.66
2022-12-09T18:34:32.286Z,92.70
2022-12-09T18:37:00.100Z,93.02
2022-12-09T18:39:27.669Z,92.38
2022-12-09T18:41:55.296Z,92.48
2022-12-09T18:44:24.199Z,92.44
2022-12-09T18:46:51.815Z,91.99
2022-12-09T18:49:21.462Z,92.63
2022-12-09T18:51:50.833Z,92.29
2022-12-09T18:54:22.625Z,92.23
2022-12-09T18:56:50.634Z,92.44
2022-12-09T18:59:19.253Z,92.22
2022-12-09T19:01:49.358Z,93.21
2022-12-09T19:04:18.882Z,92.23
2022-12-09T19:06:48.732Z,92.46
2022-12-09T19:09:20.223Z,93.10
2022-12-09T19:11:49.458Z,92.88
2022-12-09T19:14:19.018Z,93.15
2022-12-09T19:16:49.067Z,92.64
2022-12-09T19:19:19.315Z,93.33
2022-12-09T19:21:47.080Z,93.53
2022-12-09T19:24:16.596Z,93.30
2022-12-09T19:26:44.571Z,93.31
2022-12-09T19:29:13.292Z,93.78
2022-12-09T19:31:43.016Z,93.99
2022-12-09T19:34:15.251Z,93.26
2022-12-09T19:36:43.760Z,93.09
2022-12-09T19:39:13.629Z,93.96
2022-12-09T19:41:41.883Z,94.68
2022-12-09T19:44:11.758Z,94.54
2022-12-09T19:46:40.645Z,94.95
2022-12-09T19:49:08.580Z,94.50
2022-12-09T19:51:37.483Z,94.65
2022-12-09T19:54:05.413Z,94.90
2022-12-09T19:56:32.992Z,94.59
2022-12-09T19:59:00.968Z,94.76
2022-12-09T20:01:30.217Z,95.60
2022-12-09T20:04:08.828Z,94.38
2022-12-09T20:06:48.516Z,94.36
2022-12-09T20:09:23.815Z,94.45
2022-12-09T20:11:51.528Z,94.41
2022-12-09T20:14:19.535Z,93.94
2022-12-09T20:16:47.167Z,94.14
2022-12-09T20:19:14.839Z,94.20
2022-12-09T20:21:42.544Z,94.66
2022-12-09T20:24:11.577Z,94.76
2022-12-09T20:26:39.628Z,94.04
2022-12-09T20:29:10.361Z,94.44
2022-12-09T20:31:39.223Z,94.44
2022-12-09T20:34:08.279Z,95.38
2022-12-09T20:36:37.768Z,95.50
2022-12-09T20:39:14.867Z,95.01
2022-12-09T20:41:44.579Z,97.66
2022-12-09T20:44:13.817Z,97.87
2022-12-09T20:46:42.542Z,97.12
2022-12-09T20:49:10.843Z,94.47
2022-12-09T20:51:40.500Z,93.81
2022-12-09T20:54:08.956Z,94.74
2022-12-09T20:56:36.766Z,94.32
2022-12-09T20:59:06.682Z,93.85
2022-12-09T21:01:36.109Z,94.17
2022-12-09T21:04:05.730Z,94.58
2022-12-09T21:06:35.187Z,94.25
2022-12-09T21:09:03.899Z,93.94
2022-12-09T21:11:32.401Z,94.61
2022-12-09T21:14:03.250Z,93.97
2022-12-09T21:16:34.628Z,94.52
2022-12-09T21:19:07.152Z,95.09
2022-12-09T21:21:40.143Z,95.24
2022-12-09T21:24:10.182Z,95.09
2022-12-09T21:26:37.940Z,95.49
2022-12-09T21:29:05.582Z,94.71
2022-12-09T21:31:36.304Z,94.45
2022-12-09T21:34:06.038Z,96.44
2022-12-09T21:36:35.194Z,97.03
2022-12-09T21:39:03.605Z,96.08
2022-12-09T21:41:33.537Z,95.74
2022-12-09T21:44:01.291Z,95.19
2022-12-09T21:46:30.625Z,94.82
2022-12-09T21:49:03.936Z,95.20
2022-12-09T21:51:32.852Z,94.54
2022-12-09T21:54:00.670Z,94.43
2022-12-09T21:56:32.730Z,93.57
2022-12-09T21:59:01.092Z,92.56
2022-12-09T22:01:30.859Z,92.66
2022-12-09T22:04:01.817Z,92.88
2022-12-09T22:06:30.382Z,93.27
2022-12-09T22:08:59.577Z,93.36
2022-12-09T22:11:29.701Z,93.14
2022-12-09T22:13:58.732Z,92.41
2022-12-09T22:16:31.004Z,92.55
2022-12-09T22:19:01.944Z,92.62
2022-12-09T22:21:33.533Z,92.08
2022-12-09T22:24:03.976Z,91.46
2022-12-09T22:26:32.333Z,91.73
2022-12-09T22:29:00.277Z,91.95
2022-12-09T22:31:30.479Z,92.10
2022-12-09T22:34:03.037Z,91.44
2022-12-09T22:36:31.246Z,89.84
2022-12-09T22:38:58.925Z,90.42
2022-12-09T22:41:28.460Z,90.78
2022-12-09T22:43:57.308Z,91.10
2022-12-09T22:46:27.507Z,90.42
2022-12-09T22:48:56.272Z,91.45
2022-12-09T22:51:27.684Z,91.50
2022-12-09T22:53:57.162Z,92.43
2022-12-09T22:56:26.071Z,92.73
2022-12-09T22:58:54.259Z,94.01
2022-12-09T23:01:23.488Z,94.70
2022-12-09T23:03:51.264Z,94.41
2022-12-09T23:06:19.535Z,93.85
2022-12-09T23:08:49.238Z,94.08
2022-12-09T23:11:18.529Z,93.94
2022-12-09T23:13:46.854Z,94.36
2022-12-09T23:16:16.750Z,93.87
2022-12-09T23:18:44.423Z,94.22
2022-12-09T23:21:13.872Z,93.47
2022-12-09T23:23:43.620Z,94.01
2022-12-09T23:26:14.112Z,93.98
2022-12-09T23:28:44.815Z,93.80
2022-12-09T23:31:14.575Z,93.95
2022-12-09T23:33:44.040Z,93.30
2022-12-09T23:36:14.976Z,93.27
2022-12-09T23:38:43.332Z,93.03
2022-12-09T23:41:13.079Z,91.46
2022-12-09T23:43:40.816Z,90.63
2022-12-09T23:46:15.427Z,90.80
2022-12-09T23:48:44.041Z,90.56
2022-12-09T23:51:12.472Z,90.42
2022-12-09T23:53:41.567Z,91.50
2022-12-09T23:56:13.337Z,91.94
2022-12-09T23:58:41.781Z,91.32
